Map

Track Data

SID SEASON NUMBER BASIN SUBBASIN NAME ISO_TIME NATURE LAT LON WMO_WIND WMO_PRES WMO_AGENCY TRACK_TYPE DIST2LAND LANDFALL IFLAG USA_AGENCY USA_ATCF_ID USA_LAT USA_LON USA_RECORD USA_STATUS USA_WIND USA_PRES USA_SSHS USA_R34_NE USA_R34_SE USA_R34_SW USA_R34_NW USA_R50_NE USA_R50_SE USA_R50_SW USA_R50_NW USA_R64_NE USA_R64_SE USA_R64_SW USA_R64_NW USA_POCI USA_ROCI USA_RMW USA_EYE TOKYO_LAT TOKYO_LON TOKYO_GRADE TOKYO_WIND TOKYO_PRES TOKYO_R50_DIR TOKYO_R50_LONG TOKYO_R50_SHORT TOKYO_R30_DIR TOKYO_R30_LONG TOKYO_R30_SHORT TOKYO_LAND CMA_LAT CMA_LON CMA_CAT CMA_WIND CMA_PRES HKO_LAT HKO_LON HKO_CAT HKO_WIND HKO_PRES NEWDELHI_LAT NEWDELHI_LON NEWDELHI_GRADE NEWDELHI_WIND NEWDELHI_PRES NEWDELHI_CI NEWDELHI_DP NEWDELHI_POCI REUNION_LAT REUNION_LON REUNION_TYPE REUNION_WIND REUNION_PRES REUNION_TNUM REUNION_CI REUNION_RMW REUNION_R34_NE REUNION_R34_SE REUNION_R34_SW REUNION_R34_NW REUNION_R50_NE REUNION_R50_SE REUNION_R50_SW REUNION_R50_NW REUNION_R64_NE REUNION_R64_SE REUNION_R64_SW REUNION_R64_NW BOM_LAT BOM_LON BOM_TYPE BOM_WIND BOM_PRES BOM_TNUM BOM_CI BOM_RMW BOM_R34_NE BOM_R34_SE BOM_R34_SW BOM_R34_NW BOM_R50_NE BOM_R50_SE BOM_R50_SW BOM_R50_NW BOM_R64_NE BOM_R64_SE BOM_R64_SW BOM_R64_NW BOM_ROCI BOM_POCI BOM_EYE BOM_POS_METHOD BOM_PRES_METHOD NADI_LAT NADI_LON NADI_CAT NADI_WIND NADI_PRES WELLINGTON_LAT WELLINGTON_LON WELLINGTON_WIND WELLINGTON_PRES DS824_LAT DS824_LON DS824_STAGE DS824_WIND DS824_PRES TD9636_LAT TD9636_LON TD9636_STAGE TD9636_WIND TD9636_PRES TD9635_LAT TD9635_LON TD9635_WIND TD9635_PRES TD9635_ROCI NEUMANN_LAT NEUMANN_LON NEUMANN_CLASS NEUMANN_WIND NEUMANN_PRES MLC_LAT MLC_LON MLC_CLASS MLC_WIND MLC_PRES USA_GUST BOM_GUST BOM_GUST_PER REUNION_GUST REUNION_GUST_PER USA_SEAHGT USA_SEARAD_NE USA_SEARAD_SE USA_SEARAD_SW USA_SEARAD_NW STORM_SPEED STORM_DIR
1953257N18252 1953 53 EP MM NOT_NAMED 1953-09-14 00:00:00 TS 17.9000 -108.100 75 hurdat_epa main 356 353 O________OO___ hurdat_epa EP031953 17.9000 -108.100 HU 75 1 17.9000 -108.100 TC 75 17.9000 -108.100 4 8 320
1953257N18252 1953 53 EP MM NOT_NAMED 1953-09-14 03:00:00 TS 18.1988 -108.359 main 365 359 P________PP___ EP031953 18.1801 -108.362 HU 75 1 18.1801 -108.362 TC 75 18.2738 -108.346 4 8 323
1953257N18252 1953 53 EP MM NOT_NAMED 1953-09-14 06:00:00 TS 18.5256 -108.595 75 hurdat_epa main 366 361 O________OP___ hurdat_epa EP031953 18.5000 -108.600 HU 75 1 18.5000 -108.600 TC 75 18.6279 -108.574 4 8 330
1953257N18252 1953 53 EP MM NOT_NAMED 1953-09-14 09:00:00 TS 18.8866 -108.783 main 365 360 P________PP___ EP031953 18.8725 -108.787 HU 75 1 18.8725 -108.787 TC 75 18.9431 -108.765 4 7 337
1953257N18252 1953 53 EP MM NOT_NAMED 1953-09-14 12:00:00 TS 19.2000 -108.900 75 hurdat_epa main 360 352 O________OO___ hurdat_epa EP031953 19.2000 -108.900 HU 75 1 19.2000 -108.900 TC 75 19.2000 -108.900 4 5 344
1953257N18252 1953 53 EP MM NOT_NAMED 1953-09-14 15:00:00 TS 19.3816 -108.931 main 352 349 P________PP___ EP031953 19.3800 -108.923 HU 75 1 19.3800 -108.923 TC 75 19.3880 -108.966 4 3 357
1953257N18252 1953 53 EP MM NOT_NAMED 1953-09-14 18:00:00 TS 19.5060 -108.915 75 hurdat_epa main 349 346 O________OP___ hurdat_epa EP031953 19.5000 -108.900 HU 75 1 19.5000 -108.900 TC 75 19.5298 -108.975 4 3 0
1953257N18252 1953 53 EP MM NOT_NAMED 1953-09-14 21:00:00 TS 19.6394 -108.915 main 346 340 P________PP___ EP031953 19.6350 -108.907 HU 75 1 19.6350 -108.907 TC 75 19.6568 -108.947 4 3 0
1953257N18252 1953 53 EP MM NOT_NAMED 1953-09-15 00:00:00 TS 19.8000 -108.900 75 hurdat_epa main 340 336 O________OO___ hurdat_epa EP031953 19.8000 -108.900 HU 75 1 19.8000 -108.900 TC 75 19.8000 -108.900 4 4 8
1953257N18252 1953 53 EP MM NOT_NAMED 1953-09-15 03:00:00 TS 20.0347 -108.861 main 336 308 P________PP___ EP031953 20.0425 -108.858 HU 75 1 20.0425 -108.858 TC 75 20.0034 -108.877 4 5 11
1953257N18252 1953 53 EP MM NOT_NAMED 1953-09-15 06:00:00 TS 20.2855 -108.807 75 hurdat_epa main 308 287 O________OP___ hurdat_epa EP031953 20.3000 -108.800 HU 75 1 20.3000 -108.800 TC 75 20.2275 -108.837 4 5 10
1953257N18252 1953 53 EP MM NOT_NAMED 1953-09-15 09:00:00 TS 20.4985 -108.768 main 287 270 P________PP___ EP031953 20.5075 -108.765 HU 75 1 20.5075 -108.765 TC 75 20.4628 -108.780 4 4 13
1953257N18252 1953 53 EP MM NOT_NAMED 1953-09-15 12:00:00 TS 20.7000 -108.700 75 hurdat_epa main 270 255 O________OO___ hurdat_epa EP031953 20.7000 -108.700 HU 75 1 20.7000 -108.700 TC 75 20.7000 -108.700 4 4 26
1953257N18252 1953 53 EP MM NOT_NAMED 1953-09-15 15:00:00 TS 20.9007 -108.562 main 255 247 P________PP___ EP031953 20.8925 -108.558 HU 75 1 20.8925 -108.558 TC 75 20.9332 -108.581 4 5 33
1953257N18252 1953 53 EP MM NOT_NAMED 1953-09-15 18:00:00 TS 21.1130 -108.409 75 hurdat_epa main 247 236 O________OP___ hurdat_epa EP031953 21.1000 -108.400 HU 75 1 21.1000 -108.400 TC 75 21.1651 -108.443 4 5 29
1953257N18252 1953 53 EP MM NOT_NAMED 1953-09-15 21:00:00 TS 21.3639 -108.290 main 227 219 P________PP___ EP031953 21.3575 -108.285 HU 75 1 21.3575 -108.285 TC 75 21.3895 -108.309 4 5 22
1953257N18252 1953 53 EP MM NOT_NAMED 1953-09-16 00:00:00 TS 21.6000 -108.200 75 hurdat_epa main 219 211 O________OO___ hurdat_epa EP031953 21.6000 -108.200 HU 75 1 21.6000 -108.200 TC 75 21.6000 -108.200 4 4 20
1953257N18252 1953 53 EP MM NOT_NAMED 1953-09-16 03:00:00 TS 21.7614 -108.136 main 211 204 P________PP___ EP031953 21.7575 -108.135 HU 75 1 21.7575 -108.135 TC 75 21.7771 -108.138 4 3 16
1953257N18252 1953 53 EP MM NOT_NAMED 1953-09-16 06:00:00 TS 21.9085 -108.101 75 hurdat_epa main 204 189 O________OP___ hurdat_epa EP031953 21.9000 -108.100 HU 75 1 21.9000 -108.100 TC 75 21.9424 -108.105 4 3 7
1953257N18252 1953 53 EP MM NOT_NAMED 1953-09-16 09:00:00 TS 22.0903 -108.093 main 189 175 P________PP___ EP031953 22.0850 -108.092 HU 75 1 22.0850 -108.092 TC 75 22.1115 -108.094 4 4 2
1953257N18252 1953 53 EP MM NOT_NAMED 1953-09-16 12:00:00 TS 22.3000 -108.100 75 hurdat_epa main 175 163 O________OO___ hurdat_epa EP031953 22.3000 -108.100 HU 75 1 22.3000 -108.100 TC 75 22.3000 -108.100 4 5 359
1953257N18252 1953 53 EP MM NOT_NAMED 1953-09-16 15:00:00 TS 22.5379 -108.097 main 163 148 P________PP___ EP031953 22.5425 -108.093 HU 75 1 22.5425 -108.093 TC 75 22.5194 -108.116 4 5 0
1953257N18252 1953 53 EP MM NOT_NAMED 1953-09-16 18:00:00 TS 22.7930 -108.108 75 hurdat_epa main 148 140 O________OP___ hurdat_epa EP031953 22.8000 -108.100 HU 75 1 22.8000 -108.100 TC 75 22.7650 -108.140 4 5 356
1953257N18252 1953 53 EP MM NOT_NAMED 1953-09-16 21:00:00 TS 23.0476 -108.146 main 140 122 P________PP___ EP031953 23.0525 -108.140 HU 75 1 23.0525 -108.140 TC 75 23.0282 -108.169 4 5 350
1953257N18252 1953 53 EP MM NOT_NAMED 1953-09-17 00:00:00 TS 23.3000 -108.200 75 hurdat_epa main 122 O________OO___ hurdat_epa EP031953 23.3000 -108.200 HU 75 1 23.3000 -108.200 TC 75 23.3000 -108.200 4 5 347

About IBTrACS Database

This database is a web-friendly format of International Best Track Archive for Climate Stewardship (IBTrACS), a global best track data archive curated by NOAA dating back to 1842.

Updated: 2021-10-21